Time;durP1;ratioP1;P1;durP2;ratioP2;P2;SDS_P1;SDS_P2;PMS_P1;PMS_P2;Temp;Humidity;BMP_temperature;BMP_pressure;BME280_temperature;BME280_humidity;BME280_pressure;Samples;Min_cycle;Max_cycle;Signal;HPM_P1;HPM_P2
2022/08/22 00:00:13;;;;;;;10.85;4.50;;;;;;;19.71;53.11;101092.00;10603840;28;20506;-73
2022/08/22 00:05:35;;;;;;;6.85;4.03;;;;;;;19.65;52.23;101085.78;10589131;28;20378;-74
2022/08/22 00:10:56;;;;;;;8.27;3.80;;;;;;;19.68;52.42;101092.66;10591462;28;20032;-73
2022/08/22 00:16:22;;;;;;;11.30;3.78;;;;;;;19.58;52.50;101089.06;10593279;27;20058;-75
2022/08/22 00:21:29;;;;;;;9.37;3.73;;;;;;;19.58;52.30;101099.38;10577264;28;20068;-73
2022/08/22 00:26:50;;;;;;;8.55;4.38;;;;;;;19.54;52.56;101106.78;10608057;27;20047;-74
2022/08/22 00:32:06;;;;;;;8.05;3.53;;;;;;;19.42;52.59;101107.41;10601310;28;20042;-74
2022/08/22 00:37:31;;;;;;;10.45;4.15;;;;;;;19.31;52.82;101089.44;10548919;28;20528;-73
2022/08/22 00:42:51;;;;;;;8.68;3.35;;;;;;;19.26;52.95;101095.13;10604965;28;20063;-73
2022/08/22 00:48:09;;;;;;;9.98;3.08;;;;;;;19.14;53.15;101090.25;10597937;28;20040;-73
2022/08/22 00:53:11;;;;;;;8.10;2.92;;;;;;;19.07;52.99;101087.13;10608357;28;20046;-73
2022/08/22 00:58:51;;;;;;;4.72;2.90;;;;;;;19.03;52.59;101090.91;10607090;28;20055;-74
2022/08/22 01:04:12;;;;;;;12.13;3.10;;;;;;;18.93;53.14;101083.72;10593501;28;20032;-74
2022/08/22 01:09:23;;;;;;;6.45;3.15;;;;;;;18.94;53.56;101080.59;10612463;27;20035;-74
2022/08/22 01:14:40;;;;;;;7.45;2.97;;;;;;;19.09;53.04;101084.00;10588870;28;20078;-74
2022/08/22 01:20:00;;;;;;;8.75;2.97;;;;;;;19.07;53.49;101083.53;10604810;28;20035;-75
2022/08/22 01:25:40;;;;;;;9.27;3.17;;;;;;;19.06;53.23;101077.16;10596670;28;20040;-75
2022/08/22 01:31:03;;;;;;;6.65;2.63;;;;;;;19.02;53.06;101070.63;10615363;27;20039;-79
2022/08/22 01:36:27;;;;;;;9.00;2.95;;;;;;;18.96;53.13;101072.75;10608914;28;20032;-79
2022/08/22 01:42:07;;;;;;;6.43;2.60;;;;;;;18.93;53.70;101069.81;10603312;28;20052;-72
2022/08/22 01:47:16;;;;;;;10.20;3.78;;;;;;;18.86;54.08;101069.47;10611100;28;20505;-72
2022/08/22 01:52:42;;;;;;;4.97;2.72;;;;;;;18.87;54.14;101079.44;10567715;28;20036;-72
2022/08/22 01:57:54;;;;;;;7.38;3.30;;;;;;;18.86;53.80;101066.69;10572550;28;20040;-72
2022/08/22 02:03:21;;;;;;;11.02;3.35;;;;;;;18.93;53.94;101067.03;10598245;28;20039;-72
2022/08/22 02:08:32;;;;;;;10.00;3.03;;;;;;;18.88;54.26;101064.38;10607693;28;20881;-72
2022/08/22 02:13:57;;;;;;;9.18;3.50;;;;;;;18.83;54.37;101059.00;10606774;28;20035;-73
2022/08/22 02:19:13;;;;;;;8.27;3.08;;;;;;;18.77;54.74;101066.69;10589917;28;20422;-73
2022/08/22 02:24:32;;;;;;;5.03;3.13;;;;;;;18.67;54.73;101064.22;10569768;28;20043;-73
2022/08/22 02:29:40;;;;;;;6.95;3.15;;;;;;;18.74;55.21;101058.16;10608499;28;20036;-72
2022/08/22 02:35:04;;;;;;;9.60;3.42;;;;;;;18.81;55.14;101059.31;10579464;28;20421;-72
2022/08/22 02:40:09;;;;;;;7.60;2.55;;;;;;;18.75;55.43;101055.09;10590474;28;20413;-72
2022/08/22 02:45:43;;;;;;;11.73;3.28;;;;;;;18.90;55.45;101062.09;10578071;28;20506;-72
2022/08/22 02:50:50;;;;;;;10.13;3.83;;;;;;;18.85;55.44;101060.31;10586557;28;20044;-72
2022/08/22 02:56:02;;;;;;;7.10;2.97;;;;;;;18.85;55.59;101049.19;10605035;28;20043;-71
2022/08/22 03:01:12;;;;;;;9.75;3.03;;;;;;;18.82;55.51;101060.97;10584645;28;20039;-72
2022/08/22 03:06:38;;;;;;;7.72;2.90;;;;;;;18.85;55.83;101065.03;10604838;28;20042;-71
2022/08/22 03:11:45;;;;;;;5.68;3.10;;;;;;;18.82;55.81;101072.09;10589063;28;20043;-72
2022/08/22 03:17:04;;;;;;;8.25;3.03;;;;;;;18.75;56.03;101074.53;10587752;28;20044;-71
2022/08/22 03:22:29;;;;;;;6.05;2.88;;;;;;;18.77;56.36;101075.03;10606634;28;20036;-72
2022/08/22 03:27:59;;;;;;;6.85;2.58;;;;;;;18.97;56.18;101071.59;10598831;28;20438;-71
2022/08/22 03:33:23;;;;;;;7.50;2.50;;;;;;;19.11;55.42;101084.53;10563140;28;20051;-71
2022/08/22 03:38:40;;;;;;;6.43;2.45;;;;;;;19.25;55.56;101091.53;10589746;28;20051;-71
2022/08/22 03:44:19;;;;;;;8.38;2.70;;;;;;;19.68;54.86;101089.88;10580568;28;20039;-72
2022/08/22 03:49:49;;;;;;;7.78;2.88;;;;;;;19.97;54.08;101083.56;10605922;28;20047;-72
2022/08/22 03:55:13;;;;;;;7.80;2.92;;;;;;;19.95;53.90;101081.09;10600736;28;20036;-71
2022/08/22 04:00:38;;;;;;;6.63;2.60;;;;;;;20.10;53.76;101088.06;10610038;27;20051;-71
2022/08/22 04:05:55;;;;;;;7.97;3.00;;;;;;;20.39;52.72;101082.53;10597683;28;20503;-72
2022/08/22 04:11:02;;;;;;;;;;;;;;;20.51;52.42;101084.63;10610429;28;20039;-72
2022/08/22 04:16:29;;;;;;;8.85;3.08;;;;;;;20.63;52.76;101083.88;10595985;28;19919;-73
2022/08/22 04:22:01;;;;;;;5.53;2.30;;;;;;;20.68;52.14;101087.31;10597172;28;20039;-73
2022/08/22 04:27:32;;;;;;;5.75;2.33;;;;;;;20.52;52.83;101094.63;10592441;28;20038;-71
2022/08/22 04:32:44;;;;;;;7.28;2.63;;;;;;;20.70;52.12;101093.38;10599939;27;20039;-71
2022/08/22 04:37:57;;;;;;;5.25;2.42;;;;;;;20.34;53.70;101098.63;10596380;27;20043;-71
2022/08/22 04:43:29;;;;;;;5.32;1.90;;;;;;;20.21;53.49;101099.69;10611187;28;20036;-71
2022/08/22 04:48:47;;;;;;;3.65;2.28;;;;;;;20.21;53.76;101108.84;10604849;28;20052;-71
2022/08/22 04:54:28;;;;;;;8.90;2.90;;;;;;;20.85;52.74;101105.91;10580555;28;20387;-71
2022/08/22 04:59:32;;;;;;;4.65;2.20;;;;;;;21.34;52.21;101098.59;10581009;28;20054;-73
2022/08/22 05:04:34;;;;;;;9.52;2.55;;;;;;;21.72;50.63;101105.97;10550065;28;20035;-72
2022/08/22 05:09:40;;;;;;;3.67;1.85;;;;;;;22.17;49.92;101107.91;10574951;28;20044;-72
2022/08/22 05:14:46;;;;;;;7.82;2.40;;;;;;;22.36;49.16;101110.16;10563153;28;20063;-72
2022/08/22 05:19:52;;;;;;;9.90;2.38;;;;;;;22.51;49.04;101104.66;10594563;27;20062;-72
2022/08/22 05:25:02;;;;;;;5.88;2.33;;;;;;;23.04;48.71;101110.31;10596659;28;20521;-72
2022/08/22 05:30:11;;;;;;;9.73;2.55;;;;;;;23.22;47.98;101103.25;10576004;28;20036;-72
2022/08/22 05:35:17;;;;;;;10.90;2.83;;;;;;;23.80;46.53;101105.72;10575333;28;20027;-72
2022/08/22 05:40:25;;;;;;;6.13;2.22;;;;;;;24.06;45.72;101108.81;10568845;28;20512;-72
2022/08/22 05:45:28;;;;;;;10.55;2.35;;;;;;;24.27;46.33;101109.34;10582203;28;20038;-72
2022/08/22 05:50:36;;;;;;;8.75;2.45;;;;;;;24.47;45.87;101109.44;10568489;28;20039;-71
2022/08/22 05:55:51;;;;;;;8.13;3.00;;;;;;;24.61;45.31;101106.97;10592612;28;20035;-72
2022/08/22 06:01:16;;;;;;;7.55;1.98;;;;;;;24.86;45.28;101119.59;10594159;28;20528;-72
2022/08/22 06:06:19;;;;;;;7.95;2.47;;;;;;;25.25;44.94;101128.09;10582156;28;20050;-72
2022/08/22 06:11:36;;;;;;;11.13;2.40;;;;;;;25.41;44.16;101128.84;10572436;28;20760;-72
2022/08/22 06:17:10;;;;;;;12.25;2.60;;;;;;;24.66;45.45;101134.78;10575360;28;20058;-72
2022/08/22 06:22:15;;;;;;;7.00;2.13;;;;;;;24.43;45.36;101125.38;10557182;28;20046;-72
2022/08/22 06:27:21;;;;;;;8.43;2.72;;;;;;;23.49;47.61;101140.84;10582780;28;20047;-72
2022/08/22 06:32:47;;;;;;;7.47;2.10;;;;;;;22.98;48.72;101151.75;10574198;27;20057;-72
2022/08/22 06:37:51;;;;;;;5.70;2.00;;;;;;;22.35;50.27;101154.06;10590411;28;20044;-72
2022/08/22 06:42:54;;;;;;;9.25;2.10;;;;;;;21.72;51.54;101155.44;10591677;28;20046;-71
2022/08/22 06:48:11;;;;;;;7.93;2.45;;;;;;;21.24;53.54;101160.44;10591052;28;20048;-72
2022/08/22 06:53:46;;;;;;;;;;;;;;;21.01;53.86;101151.56;10572054;28;20055;-72
2022/08/22 06:58:49;;;;;;;5.70;2.15;;;;;;;20.92;55.30;101155.56;10549376;28;19919;-72
2022/08/22 07:03:57;;;;;;;11.10;2.58;;;;;;;20.59;55.68;101161.81;10600298;28;20100;-72
2022/08/22 07:08:59;;;;;;;7.20;2.40;;;;;;;20.28;57.14;101167.66;10597018;28;20054;-71
2022/08/22 07:14:07;;;;;;;5.95;2.08;;;;;;;20.31;57.28;101180.97;10590452;28;20141;-72
2022/08/22 07:19:22;;;;;;;11.88;2.55;;;;;;;20.07;57.93;101178.72;10591298;28;20054;-72
2022/08/22 07:24:30;;;;;;;7.32;2.03;;;;;;;19.88;58.42;101186.63;10589535;28;20054;-72
2022/08/22 07:29:46;;;;;;;9.13;2.03;;;;;;;19.81;59.27;101187.16;10602492;28;20044;-73
2022/08/22 07:35:04;;;;;;;5.40;1.88;;;;;;;19.83;59.41;101186.81;10599143;28;20343;-73
2022/08/22 07:40:30;;;;;;;8.00;2.60;;;;;;;19.61;60.42;101184.22;10615613;27;20043;-72
2022/08/22 07:45:37;;;;;;;9.32;2.63;;;;;;;19.61;60.38;101192.56;10606177;28;20050;-72
2022/08/22 07:50:55;;;;;;;4.33;2.07;;;;;;;19.63;60.37;101195.84;10588048;28;20056;-72
2022/08/22 07:55:58;;;;;;;9.45;2.20;;;;;;;19.64;60.82;101186.34;10601132;28;20489;-73
2022/08/22 08:01:01;;;;;;;8.32;2.80;;;;;;;19.79;60.99;101206.16;10594990;28;20043;-74
2022/08/22 08:06:04;;;;;;;8.13;2.22;;;;;;;19.79;61.00;101200.59;10599659;28;20047;-74
2022/08/22 08:11:09;;;;;;;6.68;2.80;;;;;;;19.92;61.12;101207.09;10616210;28;20844;-74
2022/08/22 08:16:20;;;;;;;7.32;2.50;;;;;;;20.22;60.69;101196.06;10596667;28;20505;-73
2022/08/22 08:21:45;;;;;;;7.30;2.28;;;;;;;20.50;60.04;101200.09;10574559;27;20039;-74
2022/08/22 08:32:13;;;;;;;9.00;2.67;;;;;;;20.45;60.35;101203.06;10607848;28;20042;-76
2022/08/22 08:37:40;;;;;;;12.88;3.17;;;;;;;20.44;60.58;101204.19;10590988;28;20055;-75
2022/08/22 08:43:33;;;;;;;7.90;2.83;;;;;;;20.61;60.26;101192.16;10614609;28;20055;-74
2022/08/22 08:48:38;;;;;;;7.82;2.42;;;;;;;21.24;59.80;101193.94;10613759;28;20078;-76
2022/08/22 08:54:20;;;;;;;9.13;2.45;;;;;;;21.54;59.14;101197.50;10615330;28;20043;-75
2022/08/22 08:59:48;;;;;;;7.28;3.00;;;;;;;22.00;57.44;101197.53;10597015;28;20056;-75
2022/08/22 09:05:09;;;;;;;8.43;2.55;;;;;;;22.25;57.46;101193.69;10593479;28;20059;-75
2022/08/22 09:10:50;;;;;;;5.07;2.42;;;;;;;22.63;57.00;101195.34;10606839;27;20032;-76
2022/08/22 09:15:52;;;;;;;5.53;2.03;;;;;;;22.65;57.44;101199.41;10600246;27;20540;-75
2022/08/22 09:21:01;;;;;;;4.95;2.70;;;;;;;22.55;57.22;101195.09;10612590;28;20051;-75
2022/08/22 09:26:14;;;;;;;8.95;2.65;;;;;;;22.58;57.01;101206.78;10595276;28;20044;-74
2022/08/22 09:31:27;;;;;;;7.38;3.30;;;;;;;22.45;57.22;101205.94;10619375;27;20422;-75
2022/08/22 09:36:35;;;;;;;15.10;2.80;;;;;;;22.42;57.67;101218.66;10595681;28;20043;-74
2022/08/22 09:41:43;;;;;;;5.82;2.70;;;;;;;22.53;57.45;101210.59;10611899;28;20054;-74
2022/08/22 09:46:57;;;;;;;8.75;3.13;;;;;;;22.74;57.57;101216.13;10612383;28;20043;-74
2022/08/22 09:52:37;;;;;;;12.40;3.42;;;;;;;22.73;57.35;101225.63;10586464;28;20222;-77
2022/08/22 09:57:54;;;;;;;10.02;2.92;;;;;;;22.65;58.07;101221.00;10584090;28;20406;-75
2022/08/22 10:03:00;;;;;;;;;;;;;;;22.78;57.96;101228.22;10563759;28;20071;-76
2022/08/22 10:08:09;;;;;;;8.30;2.65;;;;;;;22.78;57.70;101222.63;10622415;27;19933;-75
2022/08/22 10:13:42;;;;;;;6.95;3.13;;;;;;;22.85;57.21;101214.50;10602975;28;20036;-75
2022/08/22 10:19:02;;;;;;;5.95;3.10;;;;;;;22.92;57.78;101227.91;10599935;28;20046;-76
2022/08/22 10:24:29;;;;;;;11.15;3.33;;;;;;;23.06;57.65;101223.56;10586228;28;20493;-75
2022/08/22 10:29:40;;;;;;;9.50;3.13;;;;;;;23.20;56.96;101239.19;10578816;28;20541;-75
2022/08/22 10:34:47;;;;;;;7.97;3.00;;;;;;;23.31;57.09;101229.13;10604706;27;20051;-75
2022/08/22 10:40:09;;;;;;;8.35;3.05;;;;;;;23.54;56.47;101226.63;10581705;28;20055;-75
2022/08/22 10:45:32;;;;;;;13.95;3.00;;;;;;;23.77;55.93;101219.31;10591080;28;20524;-75
2022/08/22 10:50:41;;;;;;;8.68;3.28;;;;;;;23.86;56.25;101219.19;10576333;28;20051;-75
2022/08/22 10:55:44;;;;;;;8.05;3.08;;;;;;;24.00;56.04;101222.41;10573792;28;20047;-76
2022/08/22 11:00:52;;;;;;;10.68;3.10;;;;;;;23.92;55.84;101220.53;10591624;28;20051;-75
2022/08/22 11:06:00;;;;;;;8.45;2.45;;;;;;;23.87;55.65;101230.03;10598020;28;20420;-75
2022/08/22 11:11:13;;;;;;;9.73;3.10;;;;;;;23.85;55.07;101215.56;10600940;28;20035;-76
2022/08/22 11:16:45;;;;;;;10.52;3.30;;;;;;;23.90;54.90;101222.91;10601091;27;20478;-76
2022/08/22 11:22:22;;;;;;;11.80;3.45;;;;;;;23.96;55.06;101219.50;10617493;27;20039;-77
2022/08/22 11:27:33;;;;;;;11.38;2.92;;;;;;;24.01;55.42;101218.41;10477448;28;20048;-77
2022/08/22 11:32:58;;;;;;;10.35;3.25;;;;;;;24.17;54.68;101215.66;10579525;27;20042;-75
2022/08/22 11:38:07;;;;;;;11.85;2.80;;;;;;;24.23;54.92;101209.41;10616227;28;20039;-75
2022/08/22 11:43:45;;;;;;;3.80;2.28;;;;;;;24.23;54.36;101209.41;10571068;28;20043;-75
2022/08/22 11:49:12;;;;;;;7.60;2.63;;;;;;;24.18;54.92;101206.06;10583230;28;20062;-75
2022/08/22 11:54:27;;;;;;;8.00;2.50;;;;;;;24.19;54.30;101218.91;10592335;28;20040;-75
2022/08/22 11:59:41;;;;;;;15.50;3.22;;;;;;;24.20;54.51;101198.91;10594911;28;20039;-76
2022/08/22 12:04:53;;;;;;;4.82;2.60;;;;;;;24.28;54.74;101208.31;10606890;28;20044;-76
2022/08/22 12:10:02;;;;;;;5.05;2.50;;;;;;;24.38;54.42;101204.19;10588440;28;20442;-76
2022/08/22 12:15:30;;;;;;;5.95;2.47;;;;;;;24.48;54.31;101204.50;10580040;28;20048;-75
2022/08/22 12:21:10;;;;;;;6.93;2.00;;;;;;;24.61;55.01;101208.81;10571879;27;20048;-76
2022/08/22 12:26:24;;;;;;;9.63;3.58;;;;;;;24.67;53.88;101214.97;10591612;27;20036;-76
2022/08/22 12:31:49;;;;;;;10.52;3.20;;;;;;;24.71;54.37;101218.69;10594930;27;20039;-75
2022/08/22 12:37:14;;;;;;;7.80;2.90;;;;;;;24.84;55.07;101219.41;10600103;28;20551;-77
2022/08/22 12:42:19;;;;;;;6.70;2.65;;;;;;;24.89;54.92;101216.31;10541444;28;20047;-77
2022/08/22 12:47:30;;;;;;;10.93;2.83;;;;;;;24.87;54.23;101213.88;10600123;28;20046;-76
2022/08/22 12:52:59;;;;;;;7.30;3.05;;;;;;;24.85;54.05;101218.22;10606629;28;20042;-77
2022/08/22 12:58:06;;;;;;;9.93;3.10;;;;;;;24.82;54.51;101205.75;10579000;28;20054;-77
2022/08/22 13:03:22;;;;;;;7.43;3.08;;;;;;;24.89;54.93;101207.88;10593169;28;20055;-77
2022/08/22 13:08:31;;;;;;;14.57;3.50;;;;;;;24.93;55.29;101209.59;10584915;28;20048;-77
2022/08/22 13:13:36;;;;;;;6.47;2.67;;;;;;;24.99;54.64;101212.13;10581265;28;20409;-76
2022/08/22 13:18:47;;;;;;;9.00;3.50;;;;;;;25.04;55.70;101209.06;10589031;28;20056;-76
2022/08/22 13:23:54;;;;;;;6.30;2.38;;;;;;;25.03;55.21;101221.50;10591446;28;20039;-75
2022/08/22 13:29:04;;;;;;;7.15;2.78;;;;;;;25.02;55.27;101220.69;10589352;28;20062;-75
2022/08/22 13:34:31;;;;;;;7.00;3.58;;;;;;;25.00;55.50;101219.41;10588265;28;20040;-75
2022/08/22 13:39:40;;;;;;;8.02;2.97;;;;;;;24.90;55.12;101224.38;10620725;27;20047;-75
2022/08/22 13:44:45;;;;;;;7.07;2.53;;;;;;;24.80;56.23;101222.09;10614832;27;20075;-75
2022/08/22 13:50:06;;;;;;;10.25;2.78;;;;;;;24.81;56.29;101228.53;10648024;27;20636;-75
2022/08/22 13:55:26;;;;;;;6.15;2.95;;;;;;;24.85;56.25;101235.06;10616868;28;20036;-74
2022/08/22 14:01:07;;;;;;;11.30;3.53;;;;;;;24.89;55.43;101230.34;10607256;28;20047;-76
2022/08/22 14:06:19;;;;;;;7.25;3.45;;;;;;;24.96;56.01;101230.50;10604172;28;20040;-75
2022/08/22 14:11:39;;;;;;;6.65;2.85;;;;;;;25.08;55.63;101226.81;10604640;28;20051;-75
2022/08/22 14:16:48;;;;;;;8.63;3.78;;;;;;;25.10;55.69;101230.88;10604237;28;20040;-76
2022/08/22 14:21:57;;;;;;;9.55;3.03;;;;;;;25.14;54.76;101242.19;10604039;28;20054;-74
2022/08/22 14:27:06;;;;;;;7.80;2.67;;;;;;;25.19;55.66;101234.31;10604402;28;20048;-74
2022/08/22 14:32:20;;;;;;;4.63;2.55;;;;;;;25.25;54.65;101237.66;10633380;28;20069;-75
2022/08/22 14:37:33;;;;;;;12.05;3.63;;;;;;;25.24;55.55;101238.81;10637523;27;20059;-74
2022/08/22 14:42:58;;;;;;;7.03;3.42;;;;;;;25.25;55.39;101238.47;10612661;27;20469;-74
2022/08/22 14:48:14;;;;;;;11.55;3.50;;;;;;;25.25;55.30;101243.25;10585758;28;20425;-75
2022/08/22 14:53:19;;;;;;;12.80;3.22;;;;;;;25.21;54.95;101239.56;10641667;28;20043;-74
2022/08/22 14:58:22;;;;;;;9.30;4.30;;;;;;;25.18;54.92;101238.31;10632242;28;20050;-75
2022/08/22 15:03:24;;;;;;;16.85;4.18;;;;;;;25.11;55.13;101240.13;10614346;28;20047;-74
2022/08/22 15:08:39;;;;;;;7.78;4.25;;;;;;;25.06;55.20;101246.03;10617339;28;20036;-74
2022/08/22 15:13:53;;;;;;;8.25;4.47;;;;;;;25.05;54.67;101241.59;10553655;28;20058;-75
2022/08/22 15:18:55;;;;;;;7.57;4.00;;;;;;;25.06;56.15;101251.66;10610947;28;20043;-77
2022/08/22 15:24:09;;;;;;;12.07;3.30;;;;;;;25.00;56.02;101253.13;10613696;28;20054;-77
2022/08/22 15:29:16;;;;;;;7.20;2.70;;;;;;;24.99;55.65;101255.03;10580800;28;20052;-74
2022/08/22 15:34:40;;;;;;;5.03;2.80;;;;;;;24.93;55.74;101260.13;10587290;28;20039;-74
2022/08/22 15:40:12;;;;;;;7.25;2.65;;;;;;;24.88;55.29;101256.78;10572651;28;20055;-74
2022/08/22 15:45:29;;;;;;;9.23;3.05;;;;;;;24.80;56.71;101267.00;10533923;28;20059;-73
2022/08/22 15:50:41;;;;;;;7.88;3.40;;;;;;;24.71;57.84;101277.63;10571233;28;20063;-75
2022/08/22 15:56:01;;;;;;;9.52;3.42;;;;;;;24.60;57.82;101274.53;10572997;28;20052;-74
2022/08/22 16:01:07;;;;;;;12.38;3.50;;;;;;;24.48;58.49;101283.03;10567186;28;20548;-73
2022/08/22 16:06:38;;;;;;;6.57;2.85;;;;;;;24.34;59.29;101291.88;10550786;28;20052;-75
2022/08/22 16:11:42;;;;;;;10.13;3.58;;;;;;;24.22;60.40;101289.09;10551483;28;20039;-74
2022/08/22 16:16:59;;;;;;;10.93;3.80;;;;;;;24.10;60.30;101294.75;10570177;28;20526;-74
2022/08/22 16:22:03;;;;;;;;;;;;;;;23.93;61.20;101298.69;10563386;28;20051;-73
2022/08/22 16:27:20;;;;;;;7.20;3.30;;;;;;;23.93;60.64;101303.47;10568320;28;19920;-74
2022/08/22 16:32:26;;;;;;;10.77;3.60;;;;;;;23.87;61.09;101316.13;10567830;28;20540;-74
2022/08/22 16:37:45;;;;;;;8.33;3.50;;;;;;;23.85;61.82;101315.66;10574050;28;20138;-74
2022/08/22 16:43:10;;;;;;;8.63;3.75;;;;;;;23.74;62.84;101321.75;10568006;28;20055;-74
2022/08/22 16:48:34;;;;;;;8.18;4.00;;;;;;;23.58;63.69;101328.44;10563098;28;20063;-75
2022/08/22 16:53:36;;;;;;;6.22;3.40;;;;;;;23.44;64.19;101334.41;10567834;28;20043;-76
2022/08/22 16:59:14;;;;;;;10.57;3.60;;;;;;;23.37;65.72;101345.34;10569271;28;20059;-75
2022/08/22 17:04:21;;;;;;;12.35;4.10;;;;;;;23.19;66.59;101341.97;10544039;28;20058;-74
2022/08/22 17:09:59;;;;;;;12.75;4.43;;;;;;;23.11;67.15;101351.31;10561166;28;20051;-75
2022/08/22 17:15:33;;;;;;;14.32;4.13;;;;;;;22.98;69.16;101360.84;10570118;28;20058;-74
2022/08/22 17:20:39;;;;;;;6.38;3.67;;;;;;;22.81;70.26;101370.25;10578618;28;20043;-74
2022/08/22 17:25:58;;;;;;;9.05;3.70;;;;;;;22.67;70.51;101378.13;10556397;28;20052;-73
2022/08/22 17:31:03;;;;;;;8.77;3.83;;;;;;;22.58;72.13;101377.41;10549834;28;20040;-73
2022/08/22 17:36:30;;;;;;;7.25;4.10;;;;;;;22.47;71.84;101377.81;10569073;28;20047;-73
2022/08/22 17:41:48;;;;;;;6.47;3.22;;;;;;;22.45;72.53;101387.72;10555784;28;20429;-73
2022/08/22 17:47:06;;;;;;;7.50;4.20;;;;;;;22.32;73.77;101391.63;10575590;28;20048;-74
2022/08/22 17:52:20;;;;;;;7.65;4.35;;;;;;;22.33;74.06;101390.47;10577642;28;20509;-74
2022/08/22 17:57:28;;;;;;;12.52;5.40;;;;;;;22.25;75.03;101406.97;10568698;28;20031;-74
2022/08/22 18:02:57;;;;;;;16.25;5.30;;;;;;;22.17;75.69;101409.84;10570348;28;20043;-74
2022/08/22 18:07:59;;;;;;;8.13;4.00;;;;;;;22.14;75.62;101411.34;10550227;28;20048;-74
2022/08/22 18:13:09;;;;;;;8.52;4.70;;;;;;;22.14;74.34;101411.34;10577012;28;20095;-74
2022/08/22 18:18:26;;;;;;;8.57;3.83;;;;;;;22.13;74.36;101414.47;10570491;28;20052;-74
2022/08/22 18:23:36;;;;;;;7.72;3.38;;;;;;;22.12;73.73;101418.44;10561553;28;20409;-79
2022/08/22 18:28:47;;;;;;;7.72;3.30;;;;;;;22.13;74.17;101417.28;10530741;28;20040;-77
2022/08/22 18:34:12;;;;;;;6.63;3.30;;;;;;;22.16;73.55;101424.97;10569024;28;20039;-77
2022/08/22 18:39:21;;;;;;;10.75;4.90;;;;;;;22.07;74.12;101421.44;10580531;28;20039;-75
2022/08/22 18:44:28;;;;;;;8.30;3.70;;;;;;;21.97;74.54;101420.63;10566160;28;20465;-76
2022/08/22 18:49:38;;;;;;;9.80;4.10;;;;;;;21.84;75.86;101424.50;10564281;28;20044;-74
2022/08/22 18:54:59;;;;;;;4.28;3.38;;;;;;;21.83;75.81;101439.63;10569619;28;20575;-76
2022/08/22 19:00:16;;;;;;;7.00;3.40;;;;;;;21.83;75.85;101436.81;10579433;28;20035;-74
2022/08/22 19:05:39;;;;;;;6.22;3.55;;;;;;;21.80;76.31;101442.28;10574635;28;20036;-75
2022/08/22 19:10:53;;;;;;;9.13;4.30;;;;;;;21.79;76.41;101447.06;10584768;28;20048;-75
2022/08/22 19:16:24;;;;;;;7.85;4.13;;;;;;;21.64;78.92;101448.44;10582452;28;20046;-74
2022/08/22 19:27:16;;;;;;;10.82;3.63;;;;;;;21.25;81.84;101463.56;10571596;27;20637;-76
2022/08/22 19:32:45;;;;;;;7.20;4.20;;;;;;;21.01;82.66;101466.06;10555244;28;20044;-78
2022/08/22 19:37:52;;;;;;;4.70;2.75;;;;;;;20.80;83.75;101471.50;10546013;28;20036;-76
2022/08/22 19:42:55;;;;;;;3.78;2.25;;;;;;;20.48;84.01;101484.00;10552511;28;20037;-79
2022/08/22 19:48:04;;;;;;;4.47;2.75;;;;;;;20.14;85.10;101474.44;10550317;28;20063;-76
2022/08/22 19:53:37;;;;;;;3.83;1.83;;;;;;;19.83;86.18;101476.47;10552192;28;20476;-76
2022/08/22 19:59:03;;;;;;;3.08;1.50;;;;;;;19.72;86.98;101477.91;10543450;28;20047;-76
2022/08/22 20:04:19;;;;;;;3.47;1.60;;;;;;;19.70;87.22;101477.41;10558822;28;20039;-77
2022/08/22 20:09:46;;;;;;;4.18;2.40;;;;;;;19.60;88.07;101483.25;10560033;28;20048;-74
2022/08/22 20:14:49;;;;;;;6.13;2.70;;;;;;;19.47;88.65;101490.56;10568834;28;20051;-76
2022/08/22 20:19:53;;;;;;;2.13;1.65;;;;;;;19.42;89.34;101496.25;10551756;28;20044;-75
2022/08/22 20:25:00;;;;;;;2.33;1.77;;;;;;;19.47;89.23;101499.72;10579023;28;20039;-74
2022/08/22 20:30:28;;;;;;;5.28;3.92;;;;;;;19.45;89.71;101496.44;10568959;28;20036;-74
2022/08/22 20:35:37;;;;;;;3.38;2.10;;;;;;;19.38;89.85;101498.84;10541189;28;20044;-80
2022/08/22 20:41:27;;;;;;;1.80;1.60;;;;;;;19.30;90.10;101516.34;10568141;28;20038;-74
2022/08/22 20:46:44;;;;;;;4.25;3.03;;;;;;;19.25;90.27;101510.88;10553810;28;20045;-74
2022/08/22 20:52:02;;;;;;;2.17;1.20;;;;;;;19.32;90.24;101508.50;10569062;28;20039;-73
2022/08/22 20:57:16;;;;;;;1.98;1.20;;;;;;;19.38;89.94;101511.94;10569297;28;20036;-73
2022/08/22 21:02:25;;;;;;;2.72;2.00;;;;;;;19.30;89.77;101516.34;10566703;28;20040;-74
2022/08/22 21:07:33;;;;;;;3.15;1.25;;;;;;;19.22;90.30;101519.88;10567262;28;20401;-73
2022/08/22 21:12:35;;;;;;;3.40;1.40;;;;;;;19.26;89.60;101526.44;10568435;28;20050;-73
2022/08/22 21:17:38;;;;;;;2.25;1.20;;;;;;;19.15;90.33;101519.53;10602084;28;20043;-74
2022/08/22 21:22:40;;;;;;;1.40;1.00;;;;;;;19.38;89.17;101511.94;10565978;28;20047;-79
2022/08/22 21:27:46;;;;;;;1.25;1.00;;;;;;;19.31;89.00;101515.19;10569273;28;20052;-75
2022/08/22 21:32:49;;;;;;;2.05;1.17;;;;;;;19.26;88.68;101523.66;10552513;28;20044;-75
2022/08/22 21:37:51;;;;;;;1.85;1.13;;;;;;;19.18;88.77;101525.25;10574286;28;20035;-75
2022/08/22 21:43:03;;;;;;;2.08;1.10;;;;;;;19.14;89.62;101529.81;10574071;28;20059;-75
2022/08/22 21:48:36;;;;;;;1.27;1.13;;;;;;;19.16;89.58;101521.97;10551204;28;20044;-75
2022/08/22 21:53:38;;;;;;;2.08;1.20;;;;;;;19.11;90.03;101526.88;10564824;28;20051;-76
2022/08/22 21:58:41;;;;;;;1.05;0.98;;;;;;;19.08;90.21;101530.25;10566712;28;20486;-76
2022/08/22 22:03:43;;;;;;;3.75;1.92;;;;;;;18.93;90.63;101540.66;10574514;28;20036;-77
2022/08/22 22:08:45;;;;;;;1.42;1.30;;;;;;;18.93;90.53;101534.25;10572466;28;20040;-76
2022/08/22 22:13:47;;;;;;;2.40;1.30;;;;;;;18.94;91.57;101542.28;10576195;28;20040;-76
2022/08/22 22:18:50;;;;;;;1.75;1.40;;;;;;;18.90;91.73;101543.22;10572830;28;20406;-74
2022/08/22 22:23:52;;;;;;;1.65;1.25;;;;;;;18.87;91.81;101558.56;10585913;28;20437;-75
2022/08/22 22:28:57;;;;;;;2.03;1.13;;;;;;;19.03;91.67;101563.78;10573293;28;20056;-76
2022/08/22 22:33:59;;;;;;;1.70;1.60;;;;;;;18.97;92.02;101569.47;10585798;28;20056;-77
2022/08/22 22:39:05;;;;;;;2.00;1.67;;;;;;;19.18;91.05;101568.97;10576795;28;20039;-77
2022/08/22 22:44:08;;;;;;;1.57;1.30;;;;;;;19.25;90.54;101563.75;10577474;28;20031;-81
2022/08/22 22:49:10;;;;;;;3.55;1.65;;;;;;;19.28;90.32;101577.06;10572112;28;20688;-76
2022/08/22 22:54:12;;;;;;;3.22;2.28;;;;;;;19.18;90.36;101568.97;10556166;28;20506;-77
2022/08/22 22:59:14;;;;;;;2.63;2.05;;;;;;;19.01;90.48;101585.53;10572711;28;20127;-77
2022/08/22 23:04:17;;;;;;;1.65;1.40;;;;;;;18.94;91.28;101581.22;10572539;28;20047;-76
2022/08/22 23:09:19;;;;;;;2.80;2.05;;;;;;;18.91;91.43;101579.06;10580284;28;20506;-76
2022/08/22 23:14:21;;;;;;;4.45;2.45;;;;;;;18.75;92.42;101596.44;10573084;28;20047;-75
2022/08/22 23:19:24;;;;;;;4.45;3.00;;;;;;;18.66;92.99;101599.94;10579194;28;20051;-75
2022/08/22 23:24:27;;;;;;;7.03;3.95;;;;;;;18.64;93.47;101593.88;10570261;28;20066;-75
2022/08/22 23:29:30;;;;;;;6.07;4.30;;;;;;;18.65;93.94;101603.03;10558740;28;20048;-75
2022/08/22 23:34:41;;;;;;;5.18;2.88;;;;;;;18.78;93.71;101607.75;10552302;28;20544;-74
2022/08/22 23:39:43;;;;;;;5.93;3.15;;;;;;;18.77;93.29;101613.63;10571922;28;20414;-75
2022/08/22 23:44:46;;;;;;;6.13;3.70;;;;;;;18.88;92.93;101603.91;10571958;28;20421;-74
2022/08/22 23:49:48;;;;;;;5.68;3.38;;;;;;;19.06;92.25;101604.88;10571885;28;20117;-75
2022/08/22 23:54:50;;;;;;;5.50;3.90;;;;;;;19.11;91.29;101613.94;10571566;28;20039;-74
2022/08/22 23:59:53;;;;;;;8.10;4.85;;;;;;;19.14;91.03;101609.69;10574248;28;20121;-75
